sensor_id;sensor_type;location;lat;lon;timestamp;P1;durP1;ratioP1;P2;durP2;ratioP2
6420;SDS011;3243;50.958;7.012;2022-11-14T00:00:53;10.53;;;7.63;;
6420;SDS011;3243;50.958;7.012;2022-11-14T00:03:21;10.73;;;7.90;;
6420;SDS011;3243;50.958;7.012;2022-11-14T00:05:47;9.90;;;7.57;;
6420;SDS011;3243;50.958;7.012;2022-11-14T00:08:19;12.10;;;8.60;;
6420;SDS011;3243;50.958;7.012;2022-11-14T00:10:48;10.50;;;7.57;;
6420;SDS011;3243;50.958;7.012;2022-11-14T00:13:16;10.73;;;7.47;;
6420;SDS011;3243;50.958;7.012;2022-11-14T00:15:46;10.10;;;7.40;;
6420;SDS011;3243;50.958;7.012;2022-11-14T00:18:15;12.10;;;7.93;;
6420;SDS011;3243;50.958;7.012;2022-11-14T00:20:42;13.40;;;7.63;;
6420;SDS011;3243;50.958;7.012;2022-11-14T00:23:09;11.60;;;7.73;;
6420;SDS011;3243;50.958;7.012;2022-11-14T00:25:36;10.23;;;7.33;;
6420;SDS011;3243;50.958;7.012;2022-11-14T00:28:03;9.40;;;6.93;;
6420;SDS011;3243;50.958;7.012;2022-11-14T00:30:30;10.53;;;7.50;;
6420;SDS011;3243;50.958;7.012;2022-11-14T00:32:56;9.10;;;7.17;;
6420;SDS011;3243;50.958;7.012;2022-11-14T00:35:23;10.47;;;7.73;;
6420;SDS011;3243;50.958;7.012;2022-11-14T00:37:50;11.13;;;7.37;;
6420;SDS011;3243;50.958;7.012;2022-11-14T00:40:17;9.33;;;7.00;;
6420;SDS011;3243;50.958;7.012;2022-11-14T00:42:44;12.37;;;7.47;;
6420;SDS011;3243;50.958;7.012;2022-11-14T00:45:11;10.73;;;7.20;;
6420;SDS011;3243;50.958;7.012;2022-11-14T00:47:38;9.63;;;7.00;;
6420;SDS011;3243;50.958;7.012;2022-11-14T00:50:05;11.10;;;7.83;;
6420;SDS011;3243;50.958;7.012;2022-11-14T00:52:32;10.87;;;7.37;;
6420;SDS011;3243;50.958;7.012;2022-11-14T00:54:59;10.40;;;6.90;;
6420;SDS011;3243;50.958;7.012;2022-11-14T00:57:26;12.97;;;7.50;;
6420;SDS011;3243;50.958;7.012;2022-11-14T00:59:55;9.70;;;6.67;;
6420;SDS011;3243;50.958;7.012;2022-11-14T01:02:22;9.67;;;7.30;;
6420;SDS011;3243;50.958;7.012;2022-11-14T01:04:49;10.63;;;7.03;;
6420;SDS011;3243;50.958;7.012;2022-11-14T01:07:16;11.60;;;7.10;;
6420;SDS011;3243;50.958;7.012;2022-11-14T01:09:43;10.37;;;6.87;;
6420;SDS011;3243;50.958;7.012;2022-11-14T01:12:10;8.27;;;6.73;;
6420;SDS011;3243;50.958;7.012;2022-11-14T01:14:37;9.87;;;6.93;;
6420;SDS011;3243;50.958;7.012;2022-11-14T01:17:05;10.73;;;6.80;;
6420;SDS011;3243;50.958;7.012;2022-11-14T01:19:32;8.27;;;6.40;;
6420;SDS011;3243;50.958;7.012;2022-11-14T01:21:58;10.93;;;7.10;;
6420;SDS011;3243;50.958;7.012;2022-11-14T01:24:32;8.73;;;6.63;;
6420;SDS011;3243;50.958;7.012;2022-11-14T01:26:59;9.73;;;6.53;;
6420;SDS011;3243;50.958;7.012;2022-11-14T01:29:27;8.37;;;6.70;;
6420;SDS011;3243;50.958;7.012;2022-11-14T01:31:54;12.10;;;7.00;;
6420;SDS011;3243;50.958;7.012;2022-11-14T01:34:21;11.07;;;7.33;;
6420;SDS011;3243;50.958;7.012;2022-11-14T01:36:48;8.20;;;6.30;;
6420;SDS011;3243;50.958;7.012;2022-11-14T01:39:15;9.40;;;7.07;;
6420;SDS011;3243;50.958;7.012;2022-11-14T01:41:41;9.20;;;6.93;;
6420;SDS011;3243;50.958;7.012;2022-11-14T01:44:15;8.77;;;7.13;;
6420;SDS011;3243;50.958;7.012;2022-11-14T01:46:46;9.77;;;6.40;;
6420;SDS011;3243;50.958;7.012;2022-11-14T01:49:21;10.90;;;7.50;;
6420;SDS011;3243;50.958;7.012;2022-11-14T01:51:54;13.10;;;7.20;;
6420;SDS011;3243;50.958;7.012;2022-11-14T01:54:28;10.10;;;6.47;;
6420;SDS011;3243;50.958;7.012;2022-11-14T01:57:06;8.67;;;6.63;;
6420;SDS011;3243;50.958;7.012;2022-11-14T01:59:37;10.63;;;7.10;;
6420;SDS011;3243;50.958;7.012;2022-11-14T02:02:09;9.00;;;6.53;;
6420;SDS011;3243;50.958;7.012;2022-11-14T02:04:45;11.20;;;6.80;;
6420;SDS011;3243;50.958;7.012;2022-11-14T02:07:16;9.27;;;6.47;;
6420;SDS011;3243;50.958;7.012;2022-11-14T02:09:44;11.40;;;7.10;;
6420;SDS011;3243;50.958;7.012;2022-11-14T02:12:14;8.40;;;6.20;;
6420;SDS011;3243;50.958;7.012;2022-11-14T02:14:43;9.00;;;6.90;;
6420;SDS011;3243;50.958;7.012;2022-11-14T02:17:13;8.17;;;6.17;;
6420;SDS011;3243;50.958;7.012;2022-11-14T02:22:40;10.07;;;7.00;;
6420;SDS011;3243;50.958;7.012;2022-11-14T02:25:08;10.90;;;7.23;;
6420;SDS011;3243;50.958;7.012;2022-11-14T02:27:36;9.93;;;6.83;;
6420;SDS011;3243;50.958;7.012;2022-11-14T02:30:05;12.30;;;6.97;;
6420;SDS011;3243;50.958;7.012;2022-11-14T02:32:35;8.43;;;6.50;;
6420;SDS011;3243;50.958;7.012;2022-11-14T02:35:22;9.73;;;6.87;;
6420;SDS011;3243;50.958;7.012;2022-11-14T02:37:49;12.33;;;6.77;;
6420;SDS011;3243;50.958;7.012;2022-11-14T02:40:16;9.00;;;6.63;;
6420;SDS011;3243;50.958;7.012;2022-11-14T02:42:43;8.93;;;6.97;;
6420;SDS011;3243;50.958;7.012;2022-11-14T02:45:10;9.17;;;6.63;;
6420;SDS011;3243;50.958;7.012;2022-11-14T02:47:37;9.13;;;6.53;;
6420;SDS011;3243;50.958;7.012;2022-11-14T02:50:04;10.57;;;6.40;;
6420;SDS011;3243;50.958;7.012;2022-11-14T02:52:31;12.80;;;6.80;;
6420;SDS011;3243;50.958;7.012;2022-11-14T02:54:58;9.53;;;6.90;;
6420;SDS011;3243;50.958;7.012;2022-11-14T02:57:25;10.53;;;6.77;;
6420;SDS011;3243;50.958;7.012;2022-11-14T02:59:52;10.57;;;6.70;;
6420;SDS011;3243;50.958;7.012;2022-11-14T03:02:19;10.77;;;6.57;;
6420;SDS011;3243;50.958;7.012;2022-11-14T03:04:46;10.30;;;6.73;;
6420;SDS011;3243;50.958;7.012;2022-11-14T03:07:13;9.20;;;6.27;;
6420;SDS011;3243;50.958;7.012;2022-11-14T03:09:40;10.43;;;6.80;;
6420;SDS011;3243;50.958;7.012;2022-11-14T03:12:07;9.90;;;6.93;;
6420;SDS011;3243;50.958;7.012;2022-11-14T03:14:34;8.20;;;5.80;;
6420;SDS011;3243;50.958;7.012;2022-11-14T03:17:01;9.20;;;6.40;;
6420;SDS011;3243;50.958;7.012;2022-11-14T03:19:28;10.10;;;6.43;;
6420;SDS011;3243;50.958;7.012;2022-11-14T03:21:55;9.70;;;5.80;;
6420;SDS011;3243;50.958;7.012;2022-11-14T03:24:21;8.33;;;6.00;;
6420;SDS011;3243;50.958;7.012;2022-11-14T03:26:48;10.53;;;6.50;;
6420;SDS011;3243;50.958;7.012;2022-11-14T03:29:15;9.17;;;6.03;;
6420;SDS011;3243;50.958;7.012;2022-11-14T03:31:42;10.00;;;6.70;;
6420;SDS011;3243;50.958;7.012;2022-11-14T03:34:09;8.37;;;6.17;;
6420;SDS011;3243;50.958;7.012;2022-11-14T03:36:36;9.30;;;5.93;;
6420;SDS011;3243;50.958;7.012;2022-11-14T03:39:03;10.73;;;5.67;;
6420;SDS011;3243;50.958;7.012;2022-11-14T03:41:30;9.03;;;6.30;;
6420;SDS011;3243;50.958;7.012;2022-11-14T03:43:57;11.00;;;6.60;;
6420;SDS011;3243;50.958;7.012;2022-11-14T03:46:24;8.13;;;6.23;;
6420;SDS011;3243;50.958;7.012;2022-11-14T03:48:50;7.93;;;6.17;;
6420;SDS011;3243;50.958;7.012;2022-11-14T03:51:17;11.27;;;6.40;;
6420;SDS011;3243;50.958;7.012;2022-11-14T03:53:44;8.33;;;5.87;;
6420;SDS011;3243;50.958;7.012;2022-11-14T03:56:11;11.70;;;6.30;;
6420;SDS011;3243;50.958;7.012;2022-11-14T03:58:38;7.23;;;5.97;;
6420;SDS011;3243;50.958;7.012;2022-11-14T04:01:05;9.77;;;5.77;;
6420;SDS011;3243;50.958;7.012;2022-11-14T04:03:32;8.07;;;5.93;;
6420;SDS011;3243;50.958;7.012;2022-11-14T04:05:59;7.10;;;5.47;;
6420;SDS011;3243;50.958;7.012;2022-11-14T04:08:26;8.10;;;5.90;;
6420;SDS011;3243;50.958;7.012;2022-11-14T04:10:53;8.93;;;6.33;;
6420;SDS011;3243;50.958;7.012;2022-11-14T04:13:20;7.50;;;5.43;;
6420;SDS011;3243;50.958;7.012;2022-11-14T04:15:52;7.13;;;5.77;;
6420;SDS011;3243;50.958;7.012;2022-11-14T04:18:23;6.90;;;5.40;;
6420;SDS011;3243;50.958;7.012;2022-11-14T04:20:51;6.83;;;5.20;;
6420;SDS011;3243;50.958;7.012;2022-11-14T04:23:18;9.70;;;5.30;;
6420;SDS011;3243;50.958;7.012;2022-11-14T04:25:45;8.30;;;5.33;;
6420;SDS011;3243;50.958;7.012;2022-11-14T04:28:12;9.20;;;5.97;;
6420;SDS011;3243;50.958;7.012;2022-11-14T04:30:39;7.73;;;5.50;;
6420;SDS011;3243;50.958;7.012;2022-11-14T04:33:07;6.63;;;5.40;;
6420;SDS011;3243;50.958;7.012;2022-11-14T04:35:33;6.43;;;5.20;;
6420;SDS011;3243;50.958;7.012;2022-11-14T04:38:00;7.97;;;5.43;;
6420;SDS011;3243;50.958;7.012;2022-11-14T04:40:27;8.93;;;5.67;;
6420;SDS011;3243;50.958;7.012;2022-11-14T04:42:54;6.63;;;5.40;;
6420;SDS011;3243;50.958;7.012;2022-11-14T04:45:21;7.83;;;5.53;;
6420;SDS011;3243;50.958;7.012;2022-11-14T04:47:48;10.30;;;5.30;;
6420;SDS011;3243;50.958;7.012;2022-11-14T04:50:14;8.27;;;5.63;;
6420;SDS011;3243;50.958;7.012;2022-11-14T04:52:41;8.63;;;5.63;;
6420;SDS011;3243;50.958;7.012;2022-11-14T04:55:08;8.50;;;5.57;;
6420;SDS011;3243;50.958;7.012;2022-11-14T04:57:35;8.87;;;5.80;;
6420;SDS011;3243;50.958;7.012;2022-11-14T05:00:02;6.80;;;5.30;;
6420;SDS011;3243;50.958;7.012;2022-11-14T05:02:30;7.73;;;5.30;;
6420;SDS011;3243;50.958;7.012;2022-11-14T05:04:58;7.33;;;5.40;;
6420;SDS011;3243;50.958;7.012;2022-11-14T05:07:25;7.50;;;5.40;;
6420;SDS011;3243;50.958;7.012;2022-11-14T05:09:52;7.80;;;5.03;;
6420;SDS011;3243;50.958;7.012;2022-11-14T05:12:19;8.53;;;5.60;;
6420;SDS011;3243;50.958;7.012;2022-11-14T05:14:46;6.40;;;5.50;;
6420;SDS011;3243;50.958;7.012;2022-11-14T05:17:13;7.53;;;5.43;;
6420;SDS011;3243;50.958;7.012;2022-11-14T05:19:40;8.67;;;5.57;;
6420;SDS011;3243;50.958;7.012;2022-11-14T05:22:07;8.13;;;5.53;;
6420;SDS011;3243;50.958;7.012;2022-11-14T05:24:34;7.30;;;5.03;;
6420;SDS011;3243;50.958;7.012;2022-11-14T05:27:01;8.30;;;5.40;;
6420;SDS011;3243;50.958;7.012;2022-11-14T05:29:28;8.07;;;5.23;;
6420;SDS011;3243;50.958;7.012;2022-11-14T05:31:55;5.73;;;5.13;;
6420;SDS011;3243;50.958;7.012;2022-11-14T05:34:23;10.40;;;4.90;;
6420;SDS011;3243;50.958;7.012;2022-11-14T05:36:50;6.97;;;5.30;;
6420;SDS011;3243;50.958;7.012;2022-11-14T05:39:17;7.73;;;5.03;;
6420;SDS011;3243;50.958;7.012;2022-11-14T05:41:44;9.37;;;5.40;;
6420;SDS011;3243;50.958;7.012;2022-11-14T05:44:11;8.93;;;5.67;;
6420;SDS011;3243;50.958;7.012;2022-11-14T05:46:37;9.17;;;6.27;;
6420;SDS011;3243;50.958;7.012;2022-11-14T05:49:04;7.03;;;5.17;;
6420;SDS011;3243;50.958;7.012;2022-11-14T05:51:31;7.53;;;5.90;;
6420;SDS011;3243;50.958;7.012;2022-11-14T05:53:58;8.97;;;5.90;;
6420;SDS011;3243;50.958;7.012;2022-11-14T05:56:26;7.83;;;6.23;;
6420;SDS011;3243;50.958;7.012;2022-11-14T05:58:53;10.20;;;6.53;;
6420;SDS011;3243;50.958;7.012;2022-11-14T06:01:19;7.77;;;5.73;;
6420;SDS011;3243;50.958;7.012;2022-11-14T06:03:47;10.60;;;6.70;;
6420;SDS011;3243;50.958;7.012;2022-11-14T06:06:15;8.30;;;6.03;;
6420;SDS011;3243;50.958;7.012;2022-11-14T06:08:43;9.43;;;7.03;;
6420;SDS011;3243;50.958;7.012;2022-11-14T06:11:11;10.27;;;7.33;;
6420;SDS011;3243;50.958;7.012;2022-11-14T06:13:40;11.83;;;7.07;;
6420;SDS011;3243;50.958;7.012;2022-11-14T06:16:11;7.60;;;6.47;;
6420;SDS011;3243;50.958;7.012;2022-11-14T06:18:39;8.40;;;6.53;;
6420;SDS011;3243;50.958;7.012;2022-11-14T06:21:10;9.03;;;6.40;;
6420;SDS011;3243;50.958;7.012;2022-11-14T06:23:38;7.93;;;6.40;;
6420;SDS011;3243;50.958;7.012;2022-11-14T06:26:06;11.17;;;6.70;;
6420;SDS011;3243;50.958;7.012;2022-11-14T06:28:46;8.43;;;6.53;;
6420;SDS011;3243;50.958;7.012;2022-11-14T06:31:14;7.83;;;6.03;;
6420;SDS011;3243;50.958;7.012;2022-11-14T06:33:42;8.47;;;5.90;;
6420;SDS011;3243;50.958;7.012;2022-11-14T06:36:09;7.87;;;6.23;;
6420;SDS011;3243;50.958;7.012;2022-11-14T06:38:36;9.70;;;6.23;;
6420;SDS011;3243;50.958;7.012;2022-11-14T06:43:32;8.30;;;6.57;;
6420;SDS011;3243;50.958;7.012;2022-11-14T06:46:03;7.87;;;6.10;;
6420;SDS011;3243;50.958;7.012;2022-11-14T06:48:31;9.60;;;6.50;;
6420;SDS011;3243;50.958;7.012;2022-11-14T06:50:58;11.90;;;6.93;;
6420;SDS011;3243;50.958;7.012;2022-11-14T06:53:30;11.10;;;7.43;;
6420;SDS011;3243;50.958;7.012;2022-11-14T06:55:58;9.93;;;6.43;;
6420;SDS011;3243;50.958;7.012;2022-11-14T06:58:27;11.83;;;6.70;;
6420;SDS011;3243;50.958;7.012;2022-11-14T07:00:56;11.07;;;7.20;;
6420;SDS011;3243;50.958;7.012;2022-11-14T07:03:27;9.33;;;7.23;;
6420;SDS011;3243;50.958;7.012;2022-11-14T07:06:01;10.73;;;7.10;;
6420;SDS011;3243;50.958;7.012;2022-11-14T07:08:29;11.23;;;7.17;;
6420;SDS011;3243;50.958;7.012;2022-11-14T07:11:00;88.77;;;47.70;;
6420;SDS011;3243;50.958;7.012;2022-11-14T07:13:31;39.07;;;22.03;;
6420;SDS011;3243;50.958;7.012;2022-11-14T07:15:59;25.47;;;15.83;;
6420;SDS011;3243;50.958;7.012;2022-11-14T07:18:28;25.00;;;18.47;;
6420;SDS011;3243;50.958;7.012;2022-11-14T07:20:57;35.57;;;25.10;;
6420;SDS011;3243;50.958;7.012;2022-11-14T07:23:29;33.23;;;22.10;;
6420;SDS011;3243;50.958;7.012;2022-11-14T07:26:03;10.33;;;7.53;;
6420;SDS011;3243;50.958;7.012;2022-11-14T07:28:35;10.53;;;7.40;;
6420;SDS011;3243;50.958;7.012;2022-11-14T07:31:03;9.60;;;7.13;;
6420;SDS011;3243;50.958;7.012;2022-11-14T07:33:31;10.70;;;7.67;;
6420;SDS011;3243;50.958;7.012;2022-11-14T07:35:58;10.27;;;6.77;;
6420;SDS011;3243;50.958;7.012;2022-11-14T07:38:25;8.80;;;6.93;;
6420;SDS011;3243;50.958;7.012;2022-11-14T07:40:56;10.70;;;7.63;;
6420;SDS011;3243;50.958;7.012;2022-11-14T07:43:31;9.57;;;7.33;;
6420;SDS011;3243;50.958;7.012;2022-11-14T07:45:58;9.63;;;7.47;;
6420;SDS011;3243;50.958;7.012;2022-11-14T07:48:26;10.57;;;7.17;;
6420;SDS011;3243;50.958;7.012;2022-11-14T07:51:00;11.43;;;7.83;;
6420;SDS011;3243;50.958;7.012;2022-11-14T07:53:29;10.30;;;7.60;;
6420;SDS011;3243;50.958;7.012;2022-11-14T07:56:00;11.30;;;7.83;;
6420;SDS011;3243;50.958;7.012;2022-11-14T07:58:28;11.10;;;7.67;;
6420;SDS011;3243;50.958;7.012;2022-11-14T08:00:55;11.87;;;8.50;;
6420;SDS011;3243;50.958;7.012;2022-11-14T08:03:22;12.90;;;9.43;;
6420;SDS011;3243;50.958;7.012;2022-11-14T08:05:59;12.90;;;9.33;;
6420;SDS011;3243;50.958;7.012;2022-11-14T08:08:29;12.33;;;9.53;;
6420;SDS011;3243;50.958;7.012;2022-11-14T08:10:57;15.47;;;9.80;;
6420;SDS011;3243;50.958;7.012;2022-11-14T08:13:24;14.90;;;9.77;;
6420;SDS011;3243;50.958;7.012;2022-11-14T08:16:06;12.63;;;9.60;;
6420;SDS011;3243;50.958;7.012;2022-11-14T08:18:39;12.43;;;8.87;;
6420;SDS011;3243;50.958;7.012;2022-11-14T08:21:06;12.83;;;9.80;;
6420;SDS011;3243;50.958;7.012;2022-11-14T08:23:33;14.23;;;9.93;;
6420;SDS011;3243;50.958;7.012;2022-11-14T08:25:59;13.27;;;9.87;;
6420;SDS011;3243;50.958;7.012;2022-11-14T08:28:26;13.83;;;9.60;;
6420;SDS011;3243;50.958;7.012;2022-11-14T08:31:02;15.07;;;10.20;;
6420;SDS011;3243;50.958;7.012;2022-11-14T08:33:30;16.23;;;10.67;;
6420;SDS011;3243;50.958;7.012;2022-11-14T08:36:03;20.27;;;11.23;;
6420;SDS011;3243;50.958;7.012;2022-11-14T08:38:32;15.67;;;11.30;;
6420;SDS011;3243;50.958;7.012;2022-11-14T08:40:59;20.67;;;11.77;;
6420;SDS011;3243;50.958;7.012;2022-11-14T08:43:26;18.97;;;11.83;;
6420;SDS011;3243;50.958;7.012;2022-11-14T08:46:03;19.23;;;12.57;;
6420;SDS011;3243;50.958;7.012;2022-11-14T08:48:31;19.10;;;12.73;;
6420;SDS011;3243;50.958;7.012;2022-11-14T08:51:02;20.03;;;12.70;;
6420;SDS011;3243;50.958;7.012;2022-11-14T08:53:30;22.43;;;13.93;;
6420;SDS011;3243;50.958;7.012;2022-11-14T08:55:59;23.20;;;13.97;;
6420;SDS011;3243;50.958;7.012;2022-11-14T08:58:26;21.73;;;14.00;;
6420;SDS011;3243;50.958;7.012;2022-11-14T09:01:02;26.00;;;14.73;;
6420;SDS011;3243;50.958;7.012;2022-11-14T09:03:31;25.00;;;15.30;;
6420;SDS011;3243;50.958;7.012;2022-11-14T09:05:59;24.50;;;15.60;;
6420;SDS011;3243;50.958;7.012;2022-11-14T09:08:26;24.97;;;15.00;;
6420;SDS011;3243;50.958;7.012;2022-11-14T09:10:54;23.60;;;14.33;;
6420;SDS011;3243;50.958;7.012;2022-11-14T09:13:21;24.93;;;15.03;;
6420;SDS011;3243;50.958;7.012;2022-11-14T09:15:47;24.63;;;14.80;;
6420;SDS011;3243;50.958;7.012;2022-11-14T09:18:14;27.43;;;15.80;;
6420;SDS011;3243;50.958;7.012;2022-11-14T09:20:41;25.53;;;16.27;;
6420;SDS011;3243;50.958;7.012;2022-11-14T09:23:08;26.47;;;16.07;;
6420;SDS011;3243;50.958;7.012;2022-11-14T09:25:35;26.87;;;15.70;;
6420;SDS011;3243;50.958;7.012;2022-11-14T09:28:03;26.90;;;16.53;;
6420;SDS011;3243;50.958;7.012;2022-11-14T09:30:32;26.90;;;16.67;;
6420;SDS011;3243;50.958;7.012;2022-11-14T09:32:59;27.03;;;16.13;;
6420;SDS011;3243;50.958;7.012;2022-11-14T09:35:33;25.97;;;15.60;;
6420;SDS011;3243;50.958;7.012;2022-11-14T09:38:03;26.83;;;16.10;;
6420;SDS011;3243;50.958;7.012;2022-11-14T09:40:38;27.27;;;15.67;;
6420;SDS011;3243;50.958;7.012;2022-11-14T09:46:20;24.90;;;14.97;;
6420;SDS011;3243;50.958;7.012;2022-11-14T09:48:50;29.17;;;16.10;;
6420;SDS011;3243;50.958;7.012;2022-11-14T09:51:21;23.50;;;15.10;;
6420;SDS011;3243;50.958;7.012;2022-11-14T09:56:45;24.30;;;14.87;;
6420;SDS011;3243;50.958;7.012;2022-11-14T09:59:12;30.40;;;16.43;;
6420;SDS011;3243;50.958;7.012;2022-11-14T10:06:54;26.20;;;15.03;;
6420;SDS011;3243;50.958;7.012;2022-11-14T10:17:49;26.00;;;15.43;;
6420;SDS011;3243;50.958;7.012;2022-11-14T10:20:52;25.20;;;15.00;;
6420;SDS011;3243;50.958;7.012;2022-11-14T10:26:26;23.90;;;14.80;;
6420;SDS011;3243;50.958;7.012;2022-11-14T10:34:55;29.03;;;15.83;;
6420;SDS011;3243;50.958;7.012;2022-11-14T10:40:40;22.13;;;15.00;;
6420;SDS011;3243;50.958;7.012;2022-11-14T10:43:27;24.80;;;14.60;;
6420;SDS011;3243;50.958;7.012;2022-11-14T10:46:03;26.47;;;15.93;;
6420;SDS011;3243;50.958;7.012;2022-11-14T10:48:32;24.77;;;14.00;;
6420;SDS011;3243;50.958;7.012;2022-11-14T10:53:57;21.60;;;14.37;;
6420;SDS011;3243;50.958;7.012;2022-11-14T10:56:25;22.13;;;14.47;;
6420;SDS011;3243;50.958;7.012;2022-11-14T10:58:52;21.80;;;14.20;;
6420;SDS011;3243;50.958;7.012;2022-11-14T11:04:13;22.40;;;14.37;;
6420;SDS011;3243;50.958;7.012;2022-11-14T11:06:55;20.83;;;13.93;;
6420;SDS011;3243;50.958;7.012;2022-11-14T11:09:33;22.30;;;14.57;;
6420;SDS011;3243;50.958;7.012;2022-11-14T11:12:37;20.27;;;14.00;;
6420;SDS011;3243;50.958;7.012;2022-11-14T11:15:13;20.47;;;14.10;;
6420;SDS011;3243;50.958;7.012;2022-11-14T11:18:01;23.00;;;14.60;;
6420;SDS011;3243;50.958;7.012;2022-11-14T11:20:37;20.00;;;13.67;;
6420;SDS011;3243;50.958;7.012;2022-11-14T11:23:14;20.90;;;13.90;;
6420;SDS011;3243;50.958;7.012;2022-11-14T11:25:45;20.97;;;13.90;;
6420;SDS011;3243;50.958;7.012;2022-11-14T11:28:23;21.90;;;14.07;;
6420;SDS011;3243;50.958;7.012;2022-11-14T11:30:57;21.07;;;14.03;;
6420;SDS011;3243;50.958;7.012;2022-11-14T11:33:30;20.83;;;13.23;;
6420;SDS011;3243;50.958;7.012;2022-11-14T11:36:00;19.43;;;13.57;;
6420;SDS011;3243;50.958;7.012;2022-11-14T11:38:30;23.00;;;14.83;;
6420;SDS011;3243;50.958;7.012;2022-11-14T11:41:02;21.90;;;14.50;;
6420;SDS011;3243;50.958;7.012;2022-11-14T11:43:54;20.93;;;13.90;;
6420;SDS011;3243;50.958;7.012;2022-11-14T11:49:17;21.93;;;14.57;;
6420;SDS011;3243;50.958;7.012;2022-11-14T11:52:14;24.60;;;15.17;;
6420;SDS011;3243;50.958;7.012;2022-11-14T11:57:30;23.67;;;15.57;;
6420;SDS011;3243;50.958;7.012;2022-11-14T12:00:06;27.07;;;15.83;;
6420;SDS011;3243;50.958;7.012;2022-11-14T12:02:40;24.43;;;14.63;;
6420;SDS011;3243;50.958;7.012;2022-11-14T12:05:50;23.27;;;14.83;;
6420;SDS011;3243;50.958;7.012;2022-11-14T12:11:38;24.40;;;15.83;;
6420;SDS011;3243;50.958;7.012;2022-11-14T12:17:13;24.90;;;15.70;;
6420;SDS011;3243;50.958;7.012;2022-11-14T12:30:50;27.37;;;15.93;;
6420;SDS011;3243;50.958;7.012;2022-11-14T12:35:52;24.47;;;15.50;;
6420;SDS011;3243;50.958;7.012;2022-11-14T12:38:23;26.93;;;16.07;;
6420;SDS011;3243;50.958;7.012;2022-11-14T12:40:53;25.03;;;15.90;;
6420;SDS011;3243;50.958;7.012;2022-11-14T12:46:08;24.33;;;15.93;;
6420;SDS011;3243;50.958;7.012;2022-11-14T12:48:37;24.73;;;15.73;;
6420;SDS011;3243;50.958;7.012;2022-11-14T12:53:51;21.80;;;14.63;;
6420;SDS011;3243;50.958;7.012;2022-11-14T13:10:31;24.73;;;15.13;;
6420;SDS011;3243;50.958;7.012;2022-11-14T13:13:09;25.03;;;15.27;;
6420;SDS011;3243;50.958;7.012;2022-11-14T13:15:59;21.07;;;14.63;;
6420;SDS011;3243;50.958;7.012;2022-11-14T13:18:53;26.60;;;14.87;;
6420;SDS011;3243;50.958;7.012;2022-11-14T13:27:30;20.57;;;13.43;;
6420;SDS011;3243;50.958;7.012;2022-11-14T13:30:56;20.67;;;15.03;;
6420;SDS011;3243;50.958;7.012;2022-11-14T13:36:27;21.40;;;14.10;;
6420;SDS011;3243;50.958;7.012;2022-11-14T13:50:36;22.50;;;14.27;;
6420;SDS011;3243;50.958;7.012;2022-11-14T13:53:12;23.23;;;14.77;;
6420;SDS011;3243;50.958;7.012;2022-11-14T13:58:30;20.80;;;14.70;;
6420;SDS011;3243;50.958;7.012;2022-11-14T14:01:32;21.63;;;14.60;;
6420;SDS011;3243;50.958;7.012;2022-11-14T14:04:34;25.27;;;14.27;;
6420;SDS011;3243;50.958;7.012;2022-11-14T14:07:45;21.50;;;14.30;;
6420;SDS011;3243;50.958;7.012;2022-11-14T14:10:29;23.03;;;15.30;;
6420;SDS011;3243;50.958;7.012;2022-11-14T14:18:40;22.43;;;15.50;;
6420;SDS011;3243;50.958;7.012;2022-11-14T14:21:13;21.70;;;14.53;;
6420;SDS011;3243;50.958;7.012;2022-11-14T14:32:04;21.57;;;13.97;;
6420;SDS011;3243;50.958;7.012;2022-11-14T14:34:42;23.07;;;15.23;;
6420;SDS011;3243;50.958;7.012;2022-11-14T14:37:14;20.70;;;14.63;;
6420;SDS011;3243;50.958;7.012;2022-11-14T14:42:22;19.27;;;13.60;;
6420;SDS011;3243;50.958;7.012;2022-11-14T14:44:49;21.67;;;14.53;;
6420;SDS011;3243;50.958;7.012;2022-11-14T14:47:26;22.23;;;14.27;;
6420;SDS011;3243;50.958;7.012;2022-11-14T14:50:15;20.13;;;13.90;;
6420;SDS011;3243;50.958;7.012;2022-11-14T14:52:45;21.10;;;13.87;;
6420;SDS011;3243;50.958;7.012;2022-11-14T15:00:52;19.27;;;13.67;;
6420;SDS011;3243;50.958;7.012;2022-11-14T15:03:22;20.63;;;14.20;;
6420;SDS011;3243;50.958;7.012;2022-11-14T15:05:58;20.00;;;14.50;;
6420;SDS011;3243;50.958;7.012;2022-11-14T15:08:26;20.00;;;14.40;;
6420;SDS011;3243;50.958;7.012;2022-11-14T15:10:57;18.23;;;13.33;;
6420;SDS011;3243;50.958;7.012;2022-11-14T15:13:26;19.03;;;13.27;;
6420;SDS011;3243;50.958;7.012;2022-11-14T15:15:54;19.00;;;13.03;;
6420;SDS011;3243;50.958;7.012;2022-11-14T15:18:24;18.00;;;13.13;;
6420;SDS011;3243;50.958;7.012;2022-11-14T15:21:07;19.13;;;13.57;;
6420;SDS011;3243;50.958;7.012;2022-11-14T15:23:40;19.27;;;13.50;;
6420;SDS011;3243;50.958;7.012;2022-11-14T15:26:15;19.50;;;13.17;;
6420;SDS011;3243;50.958;7.012;2022-11-14T15:28:43;18.67;;;13.27;;
6420;SDS011;3243;50.958;7.012;2022-11-14T15:31:19;19.57;;;13.53;;
6420;SDS011;3243;50.958;7.012;2022-11-14T15:34:34;19.20;;;12.63;;
6420;SDS011;3243;50.958;7.012;2022-11-14T15:37:16;19.47;;;13.07;;
6420;SDS011;3243;50.958;7.012;2022-11-14T15:39:46;19.67;;;13.77;;
6420;SDS011;3243;50.958;7.012;2022-11-14T15:44:49;24.20;;;13.83;;
6420;SDS011;3243;50.958;7.012;2022-11-14T15:47:23;18.53;;;13.37;;
6420;SDS011;3243;50.958;7.012;2022-11-14T15:49:51;18.17;;;12.73;;
6420;SDS011;3243;50.958;7.012;2022-11-14T15:54:54;20.60;;;13.00;;
6420;SDS011;3243;50.958;7.012;2022-11-14T15:57:21;19.23;;;13.03;;
6420;SDS011;3243;50.958;7.012;2022-11-14T15:59:48;22.03;;;13.37;;
6420;SDS011;3243;50.958;7.012;2022-11-14T16:02:23;23.90;;;14.33;;
6420;SDS011;3243;50.958;7.012;2022-11-14T16:04:54;21.20;;;13.90;;
6420;SDS011;3243;50.958;7.012;2022-11-14T16:07:22;19.77;;;13.20;;
6420;SDS011;3243;50.958;7.012;2022-11-14T16:09:49;18.93;;;13.30;;
6420;SDS011;3243;50.958;7.012;2022-11-14T16:12:16;20.50;;;13.03;;
6420;SDS011;3243;50.958;7.012;2022-11-14T16:14:43;18.63;;;13.40;;
6420;SDS011;3243;50.958;7.012;2022-11-14T16:17:14;17.37;;;12.47;;
6420;SDS011;3243;50.958;7.012;2022-11-14T16:19:42;17.70;;;13.17;;
6420;SDS011;3243;50.958;7.012;2022-11-14T16:22:10;18.57;;;13.30;;
6420;SDS011;3243;50.958;7.012;2022-11-14T16:24:41;17.57;;;13.30;;
6420;SDS011;3243;50.958;7.012;2022-11-14T16:27:08;17.27;;;13.23;;
6420;SDS011;3243;50.958;7.012;2022-11-14T16:29:35;19.53;;;12.93;;
6420;SDS011;3243;50.958;7.012;2022-11-14T16:32:02;17.33;;;12.80;;
6420;SDS011;3243;50.958;7.012;2022-11-14T16:34:28;17.77;;;12.50;;
6420;SDS011;3243;50.958;7.012;2022-11-14T16:36:56;17.77;;;13.37;;
6420;SDS011;3243;50.958;7.012;2022-11-14T16:39:25;17.23;;;12.93;;
6420;SDS011;3243;50.958;7.012;2022-11-14T16:41:53;21.20;;;13.57;;
6420;SDS011;3243;50.958;7.012;2022-11-14T16:44:26;18.93;;;13.37;;
6420;SDS011;3243;50.958;7.012;2022-11-14T16:46:53;19.77;;;14.47;;
6420;SDS011;3243;50.958;7.012;2022-11-14T16:49:20;19.70;;;13.07;;
6420;SDS011;3243;50.958;7.012;2022-11-14T16:51:47;20.90;;;13.57;;
6420;SDS011;3243;50.958;7.012;2022-11-14T16:54:19;20.03;;;13.30;;
6420;SDS011;3243;50.958;7.012;2022-11-14T16:56:46;17.07;;;13.50;;
6420;SDS011;3243;50.958;7.012;2022-11-14T16:59:13;18.87;;;13.17;;
6420;SDS011;3243;50.958;7.012;2022-11-14T17:01:40;19.57;;;14.03;;
6420;SDS011;3243;50.958;7.012;2022-11-14T17:04:07;16.43;;;12.90;;
6420;SDS011;3243;50.958;7.012;2022-11-14T17:06:34;17.63;;;12.77;;
6420;SDS011;3243;50.958;7.012;2022-11-14T17:09:01;18.67;;;13.00;;
6420;SDS011;3243;50.958;7.012;2022-11-14T17:11:29;18.17;;;13.37;;
6420;SDS011;3243;50.958;7.012;2022-11-14T17:13:55;17.63;;;12.90;;
6420;SDS011;3243;50.958;7.012;2022-11-14T17:16:22;18.07;;;13.20;;
6420;SDS011;3243;50.958;7.012;2022-11-14T17:18:53;17.90;;;13.57;;
6420;SDS011;3243;50.958;7.012;2022-11-14T17:21:21;17.87;;;13.63;;
6420;SDS011;3243;50.958;7.012;2022-11-14T17:23:52;18.53;;;13.80;;
6420;SDS011;3243;50.958;7.012;2022-11-14T17:26:22;19.00;;;14.33;;
6420;SDS011;3243;50.958;7.012;2022-11-14T17:28:49;18.23;;;13.73;;
6420;SDS011;3243;50.958;7.012;2022-11-14T17:31:16;17.07;;;12.93;;
6420;SDS011;3243;50.958;7.012;2022-11-14T17:33:49;16.67;;;13.20;;
6420;SDS011;3243;50.958;7.012;2022-11-14T17:36:20;20.13;;;14.30;;
6420;SDS011;3243;50.958;7.012;2022-11-14T17:38:48;18.30;;;13.53;;